sensor_id;sensor_type;location;lat;lon;timestamp;P1;durP1;ratioP1;P2;durP2;ratioP2
45198;SDS011;30941;46.422;18.772;2023-04-16T00:00:25;5.93;;;4.25;;
45198;SDS011;30941;46.422;18.772;2023-04-16T00:02:50;8.57;;;4.97;;
45198;SDS011;30941;46.422;18.772;2023-04-16T00:05:15;6.13;;;4.45;;
45198;SDS011;30941;46.422;18.772;2023-04-16T00:07:41;7.45;;;4.97;;
45198;SDS011;30941;46.422;18.772;2023-04-16T00:10:06;7.70;;;4.60;;
45198;SDS011;30941;46.422;18.772;2023-04-16T00:12:32;8.63;;;4.63;;
45198;SDS011;30941;46.422;18.772;2023-04-16T00:14:57;8.02;;;5.03;;
45198;SDS011;30941;46.422;18.772;2023-04-16T00:17:23;7.38;;;4.60;;
45198;SDS011;30941;46.422;18.772;2023-04-16T00:19:48;7.78;;;4.63;;
45198;SDS011;30941;46.422;18.772;2023-04-16T00:22:14;9.45;;;7.15;;
45198;SDS011;30941;46.422;18.772;2023-04-16T00:24:39;8.68;;;6.00;;
45198;SDS011;30941;46.422;18.772;2023-04-16T00:27:05;8.63;;;6.05;;
45198;SDS011;30941;46.422;18.772;2023-04-16T00:29:30;6.95;;;5.32;;
45198;SDS011;30941;46.422;18.772;2023-04-16T00:31:57;7.85;;;5.85;;
45198;SDS011;30941;46.422;18.772;2023-04-16T00:34:23;8.98;;;6.30;;
45198;SDS011;30941;46.422;18.772;2023-04-16T00:36:48;8.07;;;5.68;;
45198;SDS011;30941;46.422;18.772;2023-04-16T00:39:13;8.88;;;5.28;;
45198;SDS011;30941;46.422;18.772;2023-04-16T00:41:39;7.90;;;5.55;;
45198;SDS011;30941;46.422;18.772;2023-04-16T00:44:05;10.15;;;5.82;;
45198;SDS011;30941;46.422;18.772;2023-04-16T00:46:30;9.02;;;6.18;;
45198;SDS011;30941;46.422;18.772;2023-04-16T00:48:55;7.45;;;6.00;;
45198;SDS011;30941;46.422;18.772;2023-04-16T00:51:24;7.90;;;5.78;;
45198;SDS011;30941;46.422;18.772;2023-04-16T00:53:49;9.82;;;6.20;;
45198;SDS011;30941;46.422;18.772;2023-04-16T00:56:14;8.02;;;5.72;;
45198;SDS011;30941;46.422;18.772;2023-04-16T00:58:40;8.50;;;6.15;;
45198;SDS011;30941;46.422;18.772;2023-04-16T01:01:05;8.15;;;5.90;;
45198;SDS011;30941;46.422;18.772;2023-04-16T01:03:38;13.30;;;6.57;;
45198;SDS011;30941;46.422;18.772;2023-04-16T01:06:06;8.80;;;6.55;;
45198;SDS011;30941;46.422;18.772;2023-04-16T01:08:32;8.68;;;6.18;;
45198;SDS011;30941;46.422;18.772;2023-04-16T01:10:57;9.57;;;6.68;;
45198;SDS011;30941;46.422;18.772;2023-04-16T01:13:22;8.70;;;6.00;;
45198;SDS011;30941;46.422;18.772;2023-04-16T01:15:48;9.55;;;7.13;;
45198;SDS011;30941;46.422;18.772;2023-04-16T01:18:17;8.88;;;6.65;;
45198;SDS011;30941;46.422;18.772;2023-04-16T01:20:44;9.68;;;6.85;;
45198;SDS011;30941;46.422;18.772;2023-04-16T01:23:10;8.93;;;6.47;;
45198;SDS011;30941;46.422;18.772;2023-04-16T01:25:35;9.43;;;6.05;;
45198;SDS011;30941;46.422;18.772;2023-04-16T01:28:01;9.55;;;6.28;;
45198;SDS011;30941;46.422;18.772;2023-04-16T01:30:26;10.32;;;6.32;;
45198;SDS011;30941;46.422;18.772;2023-04-16T01:32:52;12.00;;;6.38;;
45198;SDS011;30941;46.422;18.772;2023-04-16T01:35:17;8.65;;;6.30;;
45198;SDS011;30941;46.422;18.772;2023-04-16T01:37:43;9.27;;;6.43;;
45198;SDS011;30941;46.422;18.772;2023-04-16T01:40:09;10.68;;;6.78;;
45198;SDS011;30941;46.422;18.772;2023-04-16T01:42:35;10.13;;;6.03;;
45198;SDS011;30941;46.422;18.772;2023-04-16T01:45:01;9.00;;;6.60;;
45198;SDS011;30941;46.422;18.772;2023-04-16T01:47:26;10.05;;;6.57;;
45198;SDS011;30941;46.422;18.772;2023-04-16T01:49:51;8.70;;;5.95;;
45198;SDS011;30941;46.422;18.772;2023-04-16T01:52:17;8.15;;;6.05;;
45198;SDS011;30941;46.422;18.772;2023-04-16T01:54:42;8.25;;;6.15;;
45198;SDS011;30941;46.422;18.772;2023-04-16T01:57:08;8.60;;;6.63;;
45198;SDS011;30941;46.422;18.772;2023-04-16T01:59:33;7.70;;;6.00;;
45198;SDS011;30941;46.422;18.772;2023-04-16T02:02:08;10.38;;;6.30;;
45198;SDS011;30941;46.422;18.772;2023-04-16T02:04:37;7.90;;;6.00;;
45198;SDS011;30941;46.422;18.772;2023-04-16T02:07:04;9.75;;;6.10;;
45198;SDS011;30941;46.422;18.772;2023-04-16T02:09:30;8.57;;;6.18;;
45198;SDS011;30941;46.422;18.772;2023-04-16T02:11:55;8.73;;;6.43;;
45198;SDS011;30941;46.422;18.772;2023-04-16T02:14:21;8.05;;;5.60;;
45198;SDS011;30941;46.422;18.772;2023-04-16T02:16:49;9.90;;;6.43;;
45198;SDS011;30941;46.422;18.772;2023-04-16T02:19:15;8.68;;;6.35;;
45198;SDS011;30941;46.422;18.772;2023-04-16T02:21:40;8.10;;;5.90;;
45198;SDS011;30941;46.422;18.772;2023-04-16T02:24:06;7.97;;;5.80;;
45198;SDS011;30941;46.422;18.772;2023-04-16T02:26:32;9.15;;;6.03;;
45198;SDS011;30941;46.422;18.772;2023-04-16T02:28:57;7.82;;;5.63;;
45198;SDS011;30941;46.422;18.772;2023-04-16T02:31:22;7.50;;;5.40;;
45198;SDS011;30941;46.422;18.772;2023-04-16T02:33:48;7.18;;;5.50;;
45198;SDS011;30941;46.422;18.772;2023-04-16T02:36:13;7.28;;;5.13;;
45198;SDS011;30941;46.422;18.772;2023-04-16T02:38:38;8.13;;;5.63;;
45198;SDS011;30941;46.422;18.772;2023-04-16T02:41:04;8.82;;;5.63;;
45198;SDS011;30941;46.422;18.772;2023-04-16T02:43:29;7.03;;;5.32;;
45198;SDS011;30941;46.422;18.772;2023-04-16T02:45:55;7.00;;;5.68;;
45198;SDS011;30941;46.422;18.772;2023-04-16T02:48:20;8.02;;;5.82;;
45198;SDS011;30941;46.422;18.772;2023-04-16T02:50:45;8.73;;;6.57;;
45198;SDS011;30941;46.422;18.772;2023-04-16T02:53:11;10.00;;;5.70;;
45198;SDS011;30941;46.422;18.772;2023-04-16T02:55:36;6.95;;;5.00;;
45198;SDS011;30941;46.422;18.772;2023-04-16T02:58:01;9.13;;;5.57;;
45198;SDS011;30941;46.422;18.772;2023-04-16T03:00:27;12.40;;;5.72;;
45198;SDS011;30941;46.422;18.772;2023-04-16T03:02:52;12.02;;;5.38;;
45198;SDS011;30941;46.422;18.772;2023-04-16T03:05:17;6.35;;;5.00;;
45198;SDS011;30941;46.422;18.772;2023-04-16T03:07:43;8.45;;;5.43;;
45198;SDS011;30941;46.422;18.772;2023-04-16T03:10:08;7.68;;;5.45;;
45198;SDS011;30941;46.422;18.772;2023-04-16T03:12:35;10.73;;;5.80;;
45198;SDS011;30941;46.422;18.772;2023-04-16T03:15:01;7.90;;;5.32;;
45198;SDS011;30941;46.422;18.772;2023-04-16T03:17:27;11.30;;;6.05;;
45198;SDS011;30941;46.422;18.772;2023-04-16T03:19:52;9.27;;;5.82;;
45198;SDS011;30941;46.422;18.772;2023-04-16T03:22:18;10.55;;;5.47;;
45198;SDS011;30941;46.422;18.772;2023-04-16T03:24:43;8.93;;;5.63;;
45198;SDS011;30941;46.422;18.772;2023-04-16T03:27:08;8.30;;;5.50;;
45198;SDS011;30941;46.422;18.772;2023-04-16T03:29:37;7.93;;;5.57;;
45198;SDS011;30941;46.422;18.772;2023-04-16T03:32:02;6.72;;;4.95;;
45198;SDS011;30941;46.422;18.772;2023-04-16T03:34:28;9.02;;;5.43;;
45198;SDS011;30941;46.422;18.772;2023-04-16T03:36:53;8.65;;;5.50;;
45198;SDS011;30941;46.422;18.772;2023-04-16T03:39:18;8.50;;;5.32;;
45198;SDS011;30941;46.422;18.772;2023-04-16T03:41:44;8.52;;;5.40;;
45198;SDS011;30941;46.422;18.772;2023-04-16T03:44:10;11.90;;;6.30;;
45198;SDS011;30941;46.422;18.772;2023-04-16T03:46:35;9.23;;;5.65;;
45198;SDS011;30941;46.422;18.772;2023-04-16T03:49:00;7.40;;;5.18;;
45198;SDS011;30941;46.422;18.772;2023-04-16T03:51:26;7.68;;;5.18;;
45198;SDS011;30941;46.422;18.772;2023-04-16T03:53:51;10.93;;;6.38;;
45198;SDS011;30941;46.422;18.772;2023-04-16T03:56:17;9.90;;;5.53;;
45198;SDS011;30941;46.422;18.772;2023-04-16T03:58:42;10.55;;;5.20;;
45198;SDS011;30941;46.422;18.772;2023-04-16T04:01:07;8.52;;;6.05;;
45198;SDS011;30941;46.422;18.772;2023-04-16T04:03:33;11.25;;;5.78;;
45198;SDS011;30941;46.422;18.772;2023-04-16T04:05:58;10.23;;;6.25;;
45198;SDS011;30941;46.422;18.772;2023-04-16T04:08:23;11.02;;;6.20;;
45198;SDS011;30941;46.422;18.772;2023-04-16T04:10:50;10.98;;;6.47;;
45198;SDS011;30941;46.422;18.772;2023-04-16T04:13:15;10.98;;;6.55;;
45198;SDS011;30941;46.422;18.772;2023-04-16T04:15:40;14.77;;;7.53;;
45198;SDS011;30941;46.422;18.772;2023-04-16T04:18:06;13.65;;;7.22;;
45198;SDS011;30941;46.422;18.772;2023-04-16T04:20:31;12.38;;;7.55;;
45198;SDS011;30941;46.422;18.772;2023-04-16T04:22:56;10.85;;;7.22;;
45198;SDS011;30941;46.422;18.772;2023-04-16T04:25:22;12.32;;;7.53;;
45198;SDS011;30941;46.422;18.772;2023-04-16T04:27:47;11.38;;;8.27;;
45198;SDS011;30941;46.422;18.772;2023-04-16T04:30:13;10.02;;;6.95;;
45198;SDS011;30941;46.422;18.772;2023-04-16T04:32:38;13.10;;;7.85;;
45198;SDS011;30941;46.422;18.772;2023-04-16T04:35:04;11.45;;;7.13;;
45198;SDS011;30941;46.422;18.772;2023-04-16T04:37:30;10.95;;;7.88;;
45198;SDS011;30941;46.422;18.772;2023-04-16T04:39:56;11.32;;;7.32;;
45198;SDS011;30941;46.422;18.772;2023-04-16T04:42:21;12.35;;;7.82;;
45198;SDS011;30941;46.422;18.772;2023-04-16T04:44:46;14.77;;;8.82;;
45198;SDS011;30941;46.422;18.772;2023-04-16T04:47:12;14.73;;;9.70;;
45198;SDS011;30941;46.422;18.772;2023-04-16T04:49:38;23.58;;;11.90;;
45198;SDS011;30941;46.422;18.772;2023-04-16T04:52:04;24.52;;;11.93;;
45198;SDS011;30941;46.422;18.772;2023-04-16T04:54:30;19.55;;;10.77;;
45198;SDS011;30941;46.422;18.772;2023-04-16T04:56:56;18.13;;;10.20;;
45198;SDS011;30941;46.422;18.772;2023-04-16T04:59:21;16.92;;;10.57;;
45198;SDS011;30941;46.422;18.772;2023-04-16T05:01:47;14.80;;;9.30;;
45198;SDS011;30941;46.422;18.772;2023-04-16T05:04:13;18.65;;;10.77;;
45198;SDS011;30941;46.422;18.772;2023-04-16T05:06:38;16.63;;;8.88;;
45198;SDS011;30941;46.422;18.772;2023-04-16T05:09:04;13.82;;;9.43;;
45198;SDS011;30941;46.422;18.772;2023-04-16T05:11:29;11.95;;;8.13;;
45198;SDS011;30941;46.422;18.772;2023-04-16T05:13:55;13.75;;;8.75;;
45198;SDS011;30941;46.422;18.772;2023-04-16T05:16:20;14.43;;;9.70;;
45198;SDS011;30941;46.422;18.772;2023-04-16T05:18:46;14.35;;;10.35;;
45198;SDS011;30941;46.422;18.772;2023-04-16T05:21:11;13.95;;;9.13;;
45198;SDS011;30941;46.422;18.772;2023-04-16T05:23:37;14.57;;;9.85;;
45198;SDS011;30941;46.422;18.772;2023-04-16T05:26:02;14.73;;;10.00;;
45198;SDS011;30941;46.422;18.772;2023-04-16T05:28:28;16.90;;;10.43;;
45198;SDS011;30941;46.422;18.772;2023-04-16T05:30:54;17.80;;;10.13;;
45198;SDS011;30941;46.422;18.772;2023-04-16T05:33:19;16.15;;;10.15;;
45198;SDS011;30941;46.422;18.772;2023-04-16T05:35:45;12.27;;;9.15;;
45198;SDS011;30941;46.422;18.772;2023-04-16T05:38:10;14.88;;;10.40;;
45198;SDS011;30941;46.422;18.772;2023-04-16T05:40:35;15.15;;;9.65;;
45198;SDS011;30941;46.422;18.772;2023-04-16T05:43:01;16.45;;;10.30;;
45198;SDS011;30941;46.422;18.772;2023-04-16T05:45:26;18.15;;;10.38;;
45198;SDS011;30941;46.422;18.772;2023-04-16T05:47:51;15.32;;;10.02;;
45198;SDS011;30941;46.422;18.772;2023-04-16T05:50:17;17.30;;;10.43;;
45198;SDS011;30941;46.422;18.772;2023-04-16T05:52:42;16.98;;;10.93;;
45198;SDS011;30941;46.422;18.772;2023-04-16T05:55:08;15.68;;;10.60;;
45198;SDS011;30941;46.422;18.772;2023-04-16T05:57:33;18.05;;;11.30;;
45198;SDS011;30941;46.422;18.772;2023-04-16T05:59:59;18.13;;;10.77;;
45198;SDS011;30941;46.422;18.772;2023-04-16T06:02:24;18.00;;;11.18;;
45198;SDS011;30941;46.422;18.772;2023-04-16T06:04:50;22.40;;;13.00;;
45198;SDS011;30941;46.422;18.772;2023-04-16T06:07:15;22.90;;;14.90;;
45198;SDS011;30941;46.422;18.772;2023-04-16T06:09:41;30.38;;;18.35;;
45198;SDS011;30941;46.422;18.772;2023-04-16T06:12:06;36.15;;;19.27;;
45198;SDS011;30941;46.422;18.772;2023-04-16T06:14:31;36.38;;;21.77;;
45198;SDS011;30941;46.422;18.772;2023-04-16T06:16:57;39.13;;;24.25;;
45198;SDS011;30941;46.422;18.772;2023-04-16T06:19:22;38.63;;;25.10;;
45198;SDS011;30941;46.422;18.772;2023-04-16T06:21:48;43.88;;;25.30;;
45198;SDS011;30941;46.422;18.772;2023-04-16T06:24:14;41.65;;;24.48;;
45198;SDS011;30941;46.422;18.772;2023-04-16T06:26:40;38.10;;;23.73;;
45198;SDS011;30941;46.422;18.772;2023-04-16T06:29:05;39.22;;;24.13;;
45198;SDS011;30941;46.422;18.772;2023-04-16T06:31:31;36.35;;;24.00;;
45198;SDS011;30941;46.422;18.772;2023-04-16T06:33:56;34.45;;;24.05;;
45198;SDS011;30941;46.422;18.772;2023-04-16T06:36:21;31.83;;;22.20;;
45198;SDS011;30941;46.422;18.772;2023-04-16T06:38:47;29.92;;;21.25;;
45198;SDS011;30941;46.422;18.772;2023-04-16T06:41:12;33.40;;;22.38;;
45198;SDS011;30941;46.422;18.772;2023-04-16T06:43:38;31.45;;;22.13;;
45198;SDS011;30941;46.422;18.772;2023-04-16T06:46:04;33.40;;;22.20;;
45198;SDS011;30941;46.422;18.772;2023-04-16T06:48:29;31.58;;;22.88;;
45198;SDS011;30941;46.422;18.772;2023-04-16T06:50:55;31.80;;;22.13;;
45198;SDS011;30941;46.422;18.772;2023-04-16T06:53:20;30.02;;;21.08;;
45198;SDS011;30941;46.422;18.772;2023-04-16T06:55:46;29.35;;;21.50;;
45198;SDS011;30941;46.422;18.772;2023-04-16T06:58:11;29.58;;;21.40;;
45198;SDS011;30941;46.422;18.772;2023-04-16T07:00:36;29.13;;;22.23;;
45198;SDS011;30941;46.422;18.772;2023-04-16T07:03:02;32.85;;;21.90;;
45198;SDS011;30941;46.422;18.772;2023-04-16T07:05:27;28.10;;;20.92;;
45198;SDS011;30941;46.422;18.772;2023-04-16T07:07:52;26.10;;;19.77;;
45198;SDS011;30941;46.422;18.772;2023-04-16T07:10:20;25.80;;;18.83;;
45198;SDS011;30941;46.422;18.772;2023-04-16T07:12:45;21.60;;;15.95;;
45198;SDS011;30941;46.422;18.772;2023-04-16T07:15:11;23.90;;;16.33;;
45198;SDS011;30941;46.422;18.772;2023-04-16T07:17:36;21.45;;;15.93;;
45198;SDS011;30941;46.422;18.772;2023-04-16T07:20:02;20.10;;;15.52;;
45198;SDS011;30941;46.422;18.772;2023-04-16T07:22:27;22.27;;;15.02;;
45198;SDS011;30941;46.422;18.772;2023-04-16T07:24:52;18.17;;;13.95;;
45198;SDS011;30941;46.422;18.772;2023-04-16T07:27:18;21.40;;;14.30;;
45198;SDS011;30941;46.422;18.772;2023-04-16T07:29:43;18.02;;;13.65;;
45198;SDS011;30941;46.422;18.772;2023-04-16T07:32:10;19.13;;;13.52;;
45198;SDS011;30941;46.422;18.772;2023-04-16T07:34:35;16.08;;;12.43;;
45198;SDS011;30941;46.422;18.772;2023-04-16T07:37:01;17.25;;;13.07;;
45198;SDS011;30941;46.422;18.772;2023-04-16T07:39:26;16.05;;;12.07;;
45198;SDS011;30941;46.422;18.772;2023-04-16T07:41:51;16.13;;;12.63;;
45198;SDS011;30941;46.422;18.772;2023-04-16T07:44:17;16.48;;;12.52;;
45198;SDS011;30941;46.422;18.772;2023-04-16T07:46:42;16.45;;;13.07;;
45198;SDS011;30941;46.422;18.772;2023-04-16T07:49:07;16.15;;;12.13;;
45198;SDS011;30941;46.422;18.772;2023-04-16T07:51:33;16.13;;;12.02;;
45198;SDS011;30941;46.422;18.772;2023-04-16T07:53:58;16.27;;;12.57;;
45198;SDS011;30941;46.422;18.772;2023-04-16T07:56:23;21.88;;;13.80;;
45198;SDS011;30941;46.422;18.772;2023-04-16T07:58:49;18.13;;;12.52;;
45198;SDS011;30941;46.422;18.772;2023-04-16T08:01:15;18.65;;;12.25;;
45198;SDS011;30941;46.422;18.772;2023-04-16T08:03:41;15.38;;;11.60;;
45198;SDS011;30941;46.422;18.772;2023-04-16T08:06:06;15.80;;;11.32;;
45198;SDS011;30941;46.422;18.772;2023-04-16T08:08:32;14.75;;;11.35;;
45198;SDS011;30941;46.422;18.772;2023-04-16T08:10:57;13.32;;;11.10;;
45198;SDS011;30941;46.422;18.772;2023-04-16T08:13:24;14.82;;;11.13;;
45198;SDS011;30941;46.422;18.772;2023-04-16T08:15:49;12.15;;;10.68;;
45198;SDS011;30941;46.422;18.772;2023-04-16T08:18:15;15.18;;;11.65;;
45198;SDS011;30941;46.422;18.772;2023-04-16T08:20:40;25.63;;;22.52;;
45198;SDS011;30941;46.422;18.772;2023-04-16T08:23:06;38.78;;;34.80;;
45198;SDS011;30941;46.422;18.772;2023-04-16T08:25:31;15.27;;;13.60;;
45198;SDS011;30941;46.422;18.772;2023-04-16T08:27:57;14.70;;;12.32;;
45198;SDS011;30941;46.422;18.772;2023-04-16T08:30:22;14.27;;;11.00;;
45198;SDS011;30941;46.422;18.772;2023-04-16T08:32:48;15.70;;;11.63;;
45198;SDS011;30941;46.422;18.772;2023-04-16T08:35:14;17.73;;;13.07;;
45198;SDS011;30941;46.422;18.772;2023-04-16T08:37:39;17.98;;;12.93;;
45198;SDS011;30941;46.422;18.772;2023-04-16T08:40:04;21.45;;;14.60;;
45198;SDS011;30941;46.422;18.772;2023-04-16T08:42:36;18.42;;;14.07;;
45198;SDS011;30941;46.422;18.772;2023-04-16T08:47:40;20.48;;;13.40;;
45198;SDS011;30941;46.422;18.772;2023-04-16T08:50:05;22.40;;;14.13;;
45198;SDS011;30941;46.422;18.772;2023-04-16T08:52:33;19.77;;;15.23;;
45198;SDS011;30941;46.422;18.772;2023-04-16T08:55:05;22.80;;;16.08;;
45198;SDS011;30941;46.422;18.772;2023-04-16T09:00:09;26.25;;;17.98;;
45198;SDS011;30941;46.422;18.772;2023-04-16T09:02:35;24.20;;;16.88;;
45198;SDS011;30941;46.422;18.772;2023-04-16T09:05:01;24.70;;;16.75;;
45198;SDS011;30941;46.422;18.772;2023-04-16T09:07:29;26.40;;;18.10;;
45198;SDS011;30941;46.422;18.772;2023-04-16T09:09:55;25.83;;;17.90;;
45198;SDS011;30941;46.422;18.772;2023-04-16T09:12:22;22.27;;;16.08;;
45198;SDS011;30941;46.422;18.772;2023-04-16T09:14:50;15.70;;;12.23;;
45198;SDS011;30941;46.422;18.772;2023-04-16T09:17:16;13.25;;;9.82;;
45198;SDS011;30941;46.422;18.772;2023-04-16T09:19:42;14.05;;;8.60;;
45198;SDS011;30941;46.422;18.772;2023-04-16T09:22:08;12.55;;;8.57;;
45198;SDS011;30941;46.422;18.772;2023-04-16T09:24:34;11.25;;;8.50;;
45198;SDS011;30941;46.422;18.772;2023-04-16T09:26:59;12.13;;;9.07;;
45198;SDS011;30941;46.422;18.772;2023-04-16T09:29:34;10.05;;;8.15;;
45198;SDS011;30941;46.422;18.772;2023-04-16T09:32:01;8.30;;;6.70;;
45198;SDS011;30941;46.422;18.772;2023-04-16T09:34:28;10.65;;;8.77;;
45198;SDS011;30941;46.422;18.772;2023-04-16T09:36:53;8.95;;;6.38;;
45198;SDS011;30941;46.422;18.772;2023-04-16T09:39:18;9.88;;;7.00;;
45198;SDS011;30941;46.422;18.772;2023-04-16T09:41:44;11.40;;;6.32;;
45198;SDS011;30941;46.422;18.772;2023-04-16T09:44:11;9.90;;;6.32;;
45198;SDS011;30941;46.422;18.772;2023-04-16T09:46:39;7.78;;;6.40;;
45198;SDS011;30941;46.422;18.772;2023-04-16T09:49:09;9.10;;;6.50;;
45198;SDS011;30941;46.422;18.772;2023-04-16T09:51:39;8.80;;;6.65;;
45198;SDS011;30941;46.422;18.772;2023-04-16T09:54:06;7.20;;;6.10;;
45198;SDS011;30941;46.422;18.772;2023-04-16T09:56:31;7.13;;;6.18;;
45198;SDS011;30941;46.422;18.772;2023-04-16T09:58:58;7.35;;;5.75;;
45198;SDS011;30941;46.422;18.772;2023-04-16T10:01:24;7.90;;;6.53;;
45198;SDS011;30941;46.422;18.772;2023-04-16T10:03:52;7.20;;;5.97;;
45198;SDS011;30941;46.422;18.772;2023-04-16T10:06:19;8.82;;;6.85;;
45198;SDS011;30941;46.422;18.772;2023-04-16T10:08:46;8.55;;;6.20;;
45198;SDS011;30941;46.422;18.772;2023-04-16T10:11:12;6.82;;;5.90;;
45198;SDS011;30941;46.422;18.772;2023-04-16T10:13:38;8.52;;;6.43;;
45198;SDS011;30941;46.422;18.772;2023-04-16T10:16:03;7.85;;;6.68;;
45198;SDS011;30941;46.422;18.772;2023-04-16T10:18:29;8.95;;;7.00;;
45198;SDS011;30941;46.422;18.772;2023-04-16T10:20:55;8.68;;;6.97;;
45198;SDS011;30941;46.422;18.772;2023-04-16T10:23:21;10.73;;;7.05;;
45198;SDS011;30941;46.422;18.772;2023-04-16T10:25:47;8.75;;;6.65;;
45198;SDS011;30941;46.422;18.772;2023-04-16T10:28:15;8.07;;;7.15;;
45198;SDS011;30941;46.422;18.772;2023-04-16T10:30:44;9.20;;;7.78;;
45198;SDS011;30941;46.422;18.772;2023-04-16T10:33:18;7.43;;;6.60;;
45198;SDS011;30941;46.422;18.772;2023-04-16T10:35:44;10.73;;;7.95;;
45198;SDS011;30941;46.422;18.772;2023-04-16T10:38:26;8.60;;;7.70;;
45198;SDS011;30941;46.422;18.772;2023-04-16T10:40:57;8.05;;;6.40;;
45198;SDS011;30941;46.422;18.772;2023-04-16T10:43:26;7.47;;;6.38;;
45198;SDS011;30941;46.422;18.772;2023-04-16T10:45:52;8.70;;;6.75;;
45198;SDS011;30941;46.422;18.772;2023-04-16T10:48:18;9.77;;;6.57;;
45198;SDS011;30941;46.422;18.772;2023-04-16T10:50:56;10.30;;;7.70;;
45198;SDS011;30941;46.422;18.772;2023-04-16T10:53:23;6.82;;;6.03;;
45198;SDS011;30941;46.422;18.772;2023-04-16T10:58:29;7.10;;;6.07;;
45198;SDS011;30941;46.422;18.772;2023-04-16T11:00:58;7.28;;;6.40;;
45198;SDS011;30941;46.422;18.772;2023-04-16T11:03:25;9.25;;;5.80;;
45198;SDS011;30941;46.422;18.772;2023-04-16T11:08:42;5.93;;;5.32;;
45198;SDS011;30941;46.422;18.772;2023-04-16T11:11:10;6.57;;;5.38;;
45198;SDS011;30941;46.422;18.772;2023-04-16T11:13:36;6.72;;;5.40;;
45198;SDS011;30941;46.422;18.772;2023-04-16T11:16:02;8.00;;;5.68;;
45198;SDS011;30941;46.422;18.772;2023-04-16T11:18:28;7.40;;;5.70;;
45198;SDS011;30941;46.422;18.772;2023-04-16T11:20:53;6.72;;;5.28;;
45198;SDS011;30941;46.422;18.772;2023-04-16T11:23:19;8.00;;;5.20;;
45198;SDS011;30941;46.422;18.772;2023-04-16T11:25:44;7.07;;;5.43;;
45198;SDS011;30941;46.422;18.772;2023-04-16T11:28:10;7.35;;;5.80;;
45198;SDS011;30941;46.422;18.772;2023-04-16T11:30:36;10.88;;;6.70;;
45198;SDS011;30941;46.422;18.772;2023-04-16T11:33:08;7.18;;;6.25;;
45198;SDS011;30941;46.422;18.772;2023-04-16T11:35:35;6.30;;;5.25;;
45198;SDS011;30941;46.422;18.772;2023-04-16T11:38:01;7.32;;;5.80;;
45198;SDS011;30941;46.422;18.772;2023-04-16T11:40:29;6.88;;;5.20;;
45198;SDS011;30941;46.422;18.772;2023-04-16T11:43:11;6.32;;;5.57;;
45198;SDS011;30941;46.422;18.772;2023-04-16T11:45:38;7.75;;;5.55;;
45198;SDS011;30941;46.422;18.772;2023-04-16T11:48:03;7.57;;;6.03;;
45198;SDS011;30941;46.422;18.772;2023-04-16T11:50:28;8.30;;;6.15;;
45198;SDS011;30941;46.422;18.772;2023-04-16T11:52:55;6.20;;;5.25;;
45198;SDS011;30941;46.422;18.772;2023-04-16T11:55:21;7.90;;;4.55;;
45198;SDS011;30941;46.422;18.772;2023-04-16T11:57:47;5.18;;;4.00;;
45198;SDS011;30941;46.422;18.772;2023-04-16T12:00:13;6.15;;;4.25;;
45198;SDS011;30941;46.422;18.772;2023-04-16T12:02:48;7.78;;;4.85;;
45198;SDS011;30941;46.422;18.772;2023-04-16T12:05:36;6.55;;;4.13;;
45198;SDS011;30941;46.422;18.772;2023-04-16T12:08:04;7.03;;;3.65;;
45198;SDS011;30941;46.422;18.772;2023-04-16T12:10:37;6.00;;;3.80;;
45198;SDS011;30941;46.422;18.772;2023-04-16T12:13:17;6.88;;;3.60;;
45198;SDS011;30941;46.422;18.772;2023-04-16T12:15:45;5.75;;;3.72;;
45198;SDS011;30941;46.422;18.772;2023-04-16T12:18:14;6.97;;;3.95;;
45198;SDS011;30941;46.422;18.772;2023-04-16T12:20:41;7.68;;;4.25;;
45198;SDS011;30941;46.422;18.772;2023-04-16T12:23:07;7.75;;;5.22;;
45198;SDS011;30941;46.422;18.772;2023-04-16T12:25:33;6.75;;;5.25;;
45198;SDS011;30941;46.422;18.772;2023-04-16T12:27:58;10.98;;;6.63;;
45198;SDS011;30941;46.422;18.772;2023-04-16T12:30:24;10.13;;;6.68;;
45198;SDS011;30941;46.422;18.772;2023-04-16T12:35:43;8.25;;;5.70;;
45198;SDS011;30941;46.422;18.772;2023-04-16T12:38:09;8.13;;;5.13;;
45198;SDS011;30941;46.422;18.772;2023-04-16T12:40:34;10.13;;;5.35;;
45198;SDS011;30941;46.422;18.772;2023-04-16T12:43:00;10.60;;;6.10;;
45198;SDS011;30941;46.422;18.772;2023-04-16T12:45:26;9.40;;;6.38;;
45198;SDS011;30941;46.422;18.772;2023-04-16T12:47:52;9.60;;;5.65;;
45198;SDS011;30941;46.422;18.772;2023-04-16T12:50:18;10.25;;;6.50;;
45198;SDS011;30941;46.422;18.772;2023-04-16T12:52:43;8.82;;;6.47;;
45198;SDS011;30941;46.422;18.772;2023-04-16T12:55:09;11.13;;;7.68;;
45198;SDS011;30941;46.422;18.772;2023-04-16T12:57:34;14.02;;;6.90;;
45198;SDS011;30941;46.422;18.772;2023-04-16T13:00:00;9.75;;;6.68;;
45198;SDS011;30941;46.422;18.772;2023-04-16T13:02:25;6.55;;;4.82;;
45198;SDS011;30941;46.422;18.772;2023-04-16T13:04:51;9.20;;;5.68;;
45198;SDS011;30941;46.422;18.772;2023-04-16T13:07:17;7.82;;;5.53;;
45198;SDS011;30941;46.422;18.772;2023-04-16T13:09:42;6.38;;;5.00;;
45198;SDS011;30941;46.422;18.772;2023-04-16T13:12:08;8.25;;;4.68;;
45198;SDS011;30941;46.422;18.772;2023-04-16T13:14:34;7.65;;;5.35;;
45198;SDS011;30941;46.422;18.772;2023-04-16T13:16:59;8.27;;;5.07;;
45198;SDS011;30941;46.422;18.772;2023-04-16T13:19:25;7.50;;;5.00;;
45198;SDS011;30941;46.422;18.772;2023-04-16T13:21:50;6.50;;;4.97;;
45198;SDS011;30941;46.422;18.772;2023-04-16T13:24:16;9.05;;;4.65;;
45198;SDS011;30941;46.422;18.772;2023-04-16T13:26:41;7.47;;;5.35;;
45198;SDS011;30941;46.422;18.772;2023-04-16T13:29:07;8.75;;;5.30;;
45198;SDS011;30941;46.422;18.772;2023-04-16T13:31:33;7.43;;;5.45;;
45198;SDS011;30941;46.422;18.772;2023-04-16T13:33:58;7.93;;;5.40;;
45198;SDS011;30941;46.422;18.772;2023-04-16T13:36:24;8.10;;;5.90;;
45198;SDS011;30941;46.422;18.772;2023-04-16T13:38:49;7.80;;;5.63;;
45198;SDS011;30941;46.422;18.772;2023-04-16T13:41:15;10.07;;;6.38;;
45198;SDS011;30941;46.422;18.772;2023-04-16T13:43:40;9.98;;;6.20;;
45198;SDS011;30941;46.422;18.772;2023-04-16T13:46:06;9.20;;;6.60;;
45198;SDS011;30941;46.422;18.772;2023-04-16T13:48:32;10.05;;;6.25;;
45198;SDS011;30941;46.422;18.772;2023-04-16T13:50:57;6.70;;;5.15;;
45198;SDS011;30941;46.422;18.772;2023-04-16T13:53:22;6.07;;;4.88;;
45198;SDS011;30941;46.422;18.772;2023-04-16T13:55:48;6.13;;;4.72;;
45198;SDS011;30941;46.422;18.772;2023-04-16T13:58:14;7.53;;;4.80;;
45198;SDS011;30941;46.422;18.772;2023-04-16T14:00:40;7.53;;;5.10;;
45198;SDS011;30941;46.422;18.772;2023-04-16T14:03:06;8.05;;;5.47;;
45198;SDS011;30941;46.422;18.772;2023-04-16T14:05:32;6.80;;;5.18;;
45198;SDS011;30941;46.422;18.772;2023-04-16T14:07:57;7.60;;;5.97;;
45198;SDS011;30941;46.422;18.772;2023-04-16T14:10:22;9.20;;;6.05;;
45198;SDS011;30941;46.422;18.772;2023-04-16T14:12:48;8.77;;;5.18;;
45198;SDS011;30941;46.422;18.772;2023-04-16T14:15:13;7.97;;;4.97;;
45198;SDS011;30941;46.422;18.772;2023-04-16T14:17:42;7.53;;;4.55;;
45198;SDS011;30941;46.422;18.772;2023-04-16T14:20:08;5.93;;;4.47;;
45198;SDS011;30941;46.422;18.772;2023-04-16T14:22:35;6.65;;;5.15;;
45198;SDS011;30941;46.422;18.772;2023-04-16T14:25:01;5.40;;;4.60;;
45198;SDS011;30941;46.422;18.772;2023-04-16T14:27:27;6.07;;;4.45;;
45198;SDS011;30941;46.422;18.772;2023-04-16T14:29:52;7.35;;;4.75;;
45198;SDS011;30941;46.422;18.772;2023-04-16T14:32:18;7.25;;;4.30;;